Time;durP1;ratioP1;P1;durP2;ratioP2;P2;SDS_P1;SDS_P2;PMS_P1;PMS_P2;Temp;Humidity;BMP_temperature;BMP_pressure;BME280_temperature;BME280_humidity;BME280_pressure;Samples;Min_cycle;Max_cycle;Signal;HPM_P1;HPM_P2
2023/12/25 00:01:18;;;;;;;5.75;5.25;;;;;;;10.38;100.00;100363.63;5027535;28;20504;-66
2023/12/25 00:03:44;;;;;;;6.43;5.85;;;;;;;10.38;100.00;100363.63;5028225;28;20037;-66
2023/12/25 00:06:09;;;;;;;5.90;5.47;;;;;;;10.37;100.00;100354.06;5028486;28;20478;-66
2023/12/25 00:08:34;;;;;;;5.10;4.70;;;;;;;10.37;100.00;100359.25;5039038;28;20075;-66
2023/12/25 00:10:59;;;;;;;4.85;4.30;;;;;;;10.38;100.00;100350.66;5042792;28;20044;-66
2023/12/25 00:13:25;;;;;;;4.68;4.28;;;;;;;10.36;100.00;100345.41;5038673;28;20030;-66
2023/12/25 00:15:50;;;;;;;3.75;3.50;;;;;;;10.35;100.00;100347.97;5027433;28;20021;-66
2023/12/25 00:18:15;;;;;;;3.47;3.28;;;;;;;10.33;100.00;100343.66;5027545;28;20071;-66
2023/12/25 00:20:42;;;;;;;3.40;3.10;;;;;;;10.33;100.00;100338.47;5024366;28;20033;-66
2023/12/25 00:23:07;;;;;;;2.90;2.70;;;;;;;10.32;100.00;100331.56;5016661;28;20098;-66
2023/12/25 00:25:32;;;;;;;2.80;2.60;;;;;;;10.33;100.00;100325.53;5028899;28;20022;-66
2023/12/25 00:27:58;;;;;;;3.28;3.08;;;;;;;10.33;100.00;100319.47;5038274;28;20033;-66
2023/12/25 00:30:23;;;;;;;2.90;2.70;;;;;;;10.33;100.00;100333.28;5026151;28;20033;-66
2023/12/25 00:32:48;;;;;;;3.00;2.80;;;;;;;10.31;100.00;100339.25;5027956;28;20493;-66
2023/12/25 00:35:14;;;;;;;4.13;3.83;;;;;;;10.28;100.00;100324.53;5027277;28;20037;-66
2023/12/25 00:37:39;;;;;;;3.70;3.40;;;;;;;10.30;100.00;100335.81;5026894;28;20462;-66
2023/12/25 00:40:05;;;;;;;3.70;3.40;;;;;;;10.31;100.00;100327.19;5018458;28;20362;-66
2023/12/25 00:42:30;;;;;;;5.15;3.30;;;;;;;10.30;100.00;100330.63;5022683;28;20041;-66
2023/12/25 00:44:55;;;;;;;3.45;3.15;;;;;;;10.28;100.00;100334.88;5026954;28;20477;-66
2023/12/25 00:47:21;;;;;;;4.25;3.85;;;;;;;10.29;100.00;100331.44;5026439;28;20840;-66
2023/12/25 00:49:46;;;;;;;3.60;3.30;;;;;;;10.29;100.00;100336.63;5026950;28;20027;-66
2023/12/25 00:52:14;;;;;;;4.20;3.80;;;;;;;10.29;100.00;100340.97;5026485;28;20029;-67
2023/12/25 00:54:39;;;;;;;3.75;3.45;;;;;;;10.31;100.00;100345.31;5026892;28;20052;-66
2023/12/25 00:57:05;;;;;;;4.43;3.80;;;;;;;10.29;100.00;100344.41;5039004;28;20560;-67
2023/12/25 00:59:30;;;;;;;4.53;4.00;;;;;;;10.29;100.00;100356.50;5027200;28;20033;-66
2023/12/25 01:01:55;;;;;;;4.47;4.07;;;;;;;10.31;100.00;100357.38;5027169;28;20330;-67
2023/12/25 01:04:20;;;;;;;5.88;3.88;;;;;;;10.29;100.00;100349.56;5026650;28;20285;-66
2023/12/25 01:06:46;;;;;;;4.40;4.05;;;;;;;10.30;100.00;100368.59;5026869;28;20440;-67
2023/12/25 01:09:11;;;;;;;4.57;4.18;;;;;;;10.33;100.00;100359.19;5040337;28;20065;-66
2023/12/25 01:11:41;;;;;;;5.80;4.10;;;;;;;10.31;100.00;100366.03;5026904;28;20068;-66
2023/12/25 01:14:07;;;;;;;4.55;4.15;;;;;;;10.33;100.00;100364.38;5027163;28;20091;-66
2023/12/25 01:16:32;;;;;;;4.40;4.00;;;;;;;10.37;100.00;100367.03;5028211;28;20381;-66
2023/12/25 01:18:57;;;;;;;4.97;4.43;;;;;;;10.36;100.00;100362.69;5030540;28;20028;-66
2023/12/25 01:21:22;;;;;;;4.95;4.53;;;;;;;10.38;100.00;100363.63;5030728;28;20025;-66
2023/12/25 01:23:48;;;;;;;4.80;3.97;;;;;;;10.35;100.00;100377.34;5031923;28;20223;-66
2023/12/25 01:26:13;;;;;;;4.78;4.25;;;;;;;10.36;100.00;100360.09;5031171;28;20084;-66
2023/12/25 01:28:38;;;;;;;5.07;4.43;;;;;;;10.38;100.00;100373.97;5031511;28;20043;-66
2023/12/25 01:31:05;;;;;;;5.32;4.60;;;;;;;10.39;100.00;100375.72;5042406;28;20036;-67
2023/12/25 01:33:30;;;;;;;4.80;4.30;;;;;;;10.40;100.00;100369.69;5031037;28;20112;-66
2023/12/25 01:35:56;;;;;;;8.07;4.47;;;;;;;10.42;100.00;100380.97;5030879;28;20133;-66
2023/12/25 01:38:21;;;;;;;4.93;4.47;;;;;;;10.39;100.00;100380.91;5031430;28;20017;-66
2023/12/25 01:40:46;;;;;;;4.50;4.10;;;;;;;10.40;100.00;100393.00;5029665;28;20033;-66
2023/12/25 01:43:12;;;;;;;4.80;4.05;;;;;;;10.39;100.00;100388.66;5030922;28;20470;-66
2023/12/25 01:45:37;;;;;;;5.28;4.25;;;;;;;10.41;100.00;100381.81;5029659;28;20018;-66
2023/12/25 01:48:03;;;;;;;5.18;4.40;;;;;;;10.41;100.00;100387.00;5030780;28;20091;-66
2023/12/25 01:50:29;;;;;;;5.28;4.78;;;;;;;10.40;100.00;100380.94;5035229;28;20051;-66
2023/12/25 01:52:55;;;;;;;5.38;4.97;;;;;;;10.39;100.00;100379.19;5031058;28;20029;-67
2023/12/25 01:55:20;;;;;;;6.85;5.15;;;;;;;10.41;100.00;100381.81;5029859;28;20068;-66
2023/12/25 01:57:46;;;;;;;5.90;5.25;;;;;;;10.43;100.00;100387.91;5031099;28;20032;-66
2023/12/25 02:00:12;;;;;;;6.05;5.50;;;;;;;10.44;100.00;100392.25;5030647;28;20029;-67
2023/12/25 02:02:37;;;;;;;6.18;5.57;;;;;;;10.42;100.00;100401.69;5030059;28;20371;-66
2023/12/25 02:05:03;;;;;;;6.78;5.80;;;;;;;10.43;100.00;100400.88;5028930;28;20811;-67
2023/12/25 02:07:29;;;;;;;6.03;5.53;;;;;;;10.40;100.00;100400.78;5030346;28;20025;-66
2023/12/25 02:09:54;;;;;;;6.28;5.68;;;;;;;10.38;100.00;100394.69;5029561;28;20028;-67
2023/12/25 02:12:20;;;;;;;5.78;5.28;;;;;;;10.39;100.00;100399.03;5029813;28;20025;-66
2023/12/25 02:14:45;;;;;;;6.40;5.80;;;;;;;10.40;100.00;100396.47;5029812;28;20053;-66
2023/12/25 02:17:12;;;;;;;7.32;6.63;;;;;;;10.40;100.00;100400.78;5029238;28;20481;-66
2023/12/25 02:19:40;;;;;;;6.75;6.18;;;;;;;10.39;100.00;100399.03;5029798;28;20500;-66
2023/12/25 02:22:08;;;;;;;6.88;6.28;;;;;;;10.38;100.00;100410.25;5030039;28;20029;-66
2023/12/25 02:24:36;;;;;;;6.63;6.03;;;;;;;10.38;100.00;100407.66;5017728;28;20029;-66
2023/12/25 02:27:02;;;;;;;7.18;6.47;;;;;;;10.38;100.00;100397.28;5029499;28;20044;-66
2023/12/25 02:29:27;;;;;;;8.32;7.53;;;;;;;10.41;100.00;100410.31;5028734;28;20013;-66
2023/12/25 02:31:52;;;;;;;7.80;7.07;;;;;;;10.44;100.00;100405.19;5028401;28;20036;-65
2023/12/25 02:34:18;;;;;;;8.23;7.43;;;;;;;10.43;100.00;100406.91;5028988;28;20108;-67
2023/12/25 02:36:43;;;;;;;7.63;7.03;;;;;;;10.47;100.00;100407.88;5029644;28;20009;-66
2023/12/25 02:39:08;;;;;;;6.80;6.15;;;;;;;10.48;100.00;100409.66;5029605;28;20130;-67
2023/12/25 02:41:34;;;;;;;6.20;5.60;;;;;;;10.49;100.00;100415.72;5029632;28;20021;-66
2023/12/25 02:43:59;;;;;;;6.43;5.93;;;;;;;10.49;100.00;100410.56;5028342;28;20099;-66
2023/12/25 02:46:24;;;;;;;6.00;5.50;;;;;;;10.51;100.00;100425.28;5029729;28;20351;-66
2023/12/25 02:48:50;;;;;;;7.10;5.68;;;;;;;10.49;100.00;100426.94;5029154;28;20052;-66
2023/12/25 02:51:15;;;;;;;7.40;6.38;;;;;;;10.50;100.00;100426.13;5028192;28;20021;-66
2023/12/25 02:53:40;;;;;;;6.63;6.13;;;;;;;10.50;100.00;100427.84;5024216;28;20056;-66
2023/12/25 02:56:05;;;;;;;6.15;5.72;;;;;;;10.50;100.00;100433.00;5029047;28;20417;-66
2023/12/25 02:58:31;;;;;;;6.55;5.95;;;;;;;10.50;100.00;100431.31;5028831;28;20036;-66
2023/12/25 03:00:56;;;;;;;7.00;6.40;;;;;;;10.51;100.00;100432.16;5028560;28;20529;-67
2023/12/25 03:03:21;;;;;;;6.22;5.72;;;;;;;10.53;100.00;100444.34;5029823;28;20500;-66
2023/12/25 03:05:47;;;;;;;6.13;5.65;;;;;;;10.55;100.00;100440.06;5028126;28;20021;-66
2023/12/25 03:08:12;;;;;;;6.82;6.30;;;;;;;10.57;100.00;100432.34;5028116;28;20614;-66
2023/12/25 03:10:37;;;;;;;6.45;5.95;;;;;;;10.57;100.00;100430.63;5028399;28;20017;-66
2023/12/25 03:13:03;;;;;;;6.15;5.68;;;;;;;10.57;100.00;100437.53;5029859;28;20027;-66
2023/12/25 03:15:28;;;;;;;6.40;5.80;;;;;;;10.59;100.00;100429.78;5029208;28;20041;-66
2023/12/25 03:17:53;;;;;;;5.80;5.40;;;;;;;10.62;100.00;100419.50;5028789;28;20021;-66
2023/12/25 03:20:19;;;;;;;5.55;5.05;;;;;;;10.62;100.00;100435.03;5028457;28;20083;-67
2023/12/25 03:22:44;;;;;;;5.40;5.00;;;;;;;10.65;100.00;100417.00;5029589;28;20021;-66
2023/12/25 03:25:10;;;;;;;5.68;5.28;;;;;;;10.67;100.00;100420.47;5028732;28;20035;-66
2023/12/25 03:27:35;;;;;;;4.78;4.47;;;;;;;10.65;100.00;100427.38;5034590;28;20029;-66
2023/12/25 03:30:01;;;;;;;5.93;5.35;;;;;;;10.65;100.00;100438.59;5035208;28;20120;-65
2023/12/25 03:32:26;;;;;;;5.32;4.80;;;;;;;10.67;100.00;100426.53;5027934;28;20056;-66
2023/12/25 03:34:51;;;;;;;5.35;4.95;;;;;;;10.70;100.00;100430.94;5028162;28;20060;-66
2023/12/25 03:37:16;;;;;;;5.80;5.30;;;;;;;10.70;100.00;100425.75;5028020;28;20042;-66
2023/12/25 03:39:42;;;;;;;5.55;5.15;;;;;;;10.72;100.00;100434.41;5033364;28;20386;-66
2023/12/25 03:42:07;;;;;;;6.00;5.60;;;;;;;10.74;100.00;100448.31;5035881;28;20029;-66
2023/12/25 03:44:32;;;;;;;5.63;5.13;;;;;;;10.71;100.00;100440.47;5026998;28;20053;-66
2023/12/25 03:46:58;;;;;;;6.47;5.97;;;;;;;10.71;100.00;100450.81;5040971;28;20036;-66
2023/12/25 03:49:23;;;;;;;6.30;5.80;;;;;;;10.70;100.00;100451.66;5028237;28;20109;-66
2023/12/25 03:51:48;;;;;;;5.57;5.10;;;;;;;10.69;100.00;100455.97;5028509;28;20029;-66
2023/12/25 03:54:13;;;;;;;5.90;5.40;;;;;;;10.73;100.00;100464.69;5032403;28;20082;-66
2023/12/25 03:56:39;;;;;;;5.93;5.25;;;;;;;10.70;100.00;100464.63;5034955;28;20491;-66
2023/12/25 03:59:04;;;;;;;5.95;5.45;;;;;;;10.66;100.00;100476.63;5027249;28;20017;-66
2023/12/25 04:01:30;;;;;;;5.88;5.38;;;;;;;10.65;100.00;100471.41;5028016;28;20083;-66
2023/12/25 04:03:55;;;;;;;5.53;5.13;;;;;;;10.62;100.00;100473.91;5027961;28;20021;-66
2023/12/25 04:06:24;;;;;;;5.30;4.90;;;;;;;10.61;100.00;100462.69;5027954;28;20025;-66
2023/12/25 04:08:49;;;;;;;5.93;4.93;;;;;;;10.59;100.00;100453.09;5027315;28;20013;-66
2023/12/25 04:11:22;;;;;;;4.60;4.20;;;;;;;10.59;100.00;100463.47;5027421;28;20020;-66
2023/12/25 04:13:53;;;;;;;5.18;4.75;;;;;;;10.60;100.00;100455.72;5027151;28;20272;-66
2023/12/25 04:16:24;;;;;;;4.85;4.45;;;;;;;10.57;100.00;100451.38;5038292;28;20033;-66
2023/12/25 04:18:52;;;;;;;4.50;4.20;;;;;;;10.59;100.00;100445.31;5027910;28;20040;-66
2023/12/25 04:21:32;;;;;;;3.60;3.30;;;;;;;10.59;100.00;100442.75;5027100;28;20486;-66
2023/12/25 04:23:58;;;;;;;4.85;3.78;;;;;;;10.56;100.00;100444.41;5027636;28;20028;-66
2023/12/25 04:26:24;;;;;;;4.55;4.15;;;;;;;10.57;100.00;100433.22;5026535;28;20110;-66
2023/12/25 04:28:50;;;;;;;4.72;4.32;;;;;;;10.56;100.00;100431.44;5027671;28;20103;-66
2023/12/25 04:31:16;;;;;;;4.55;4.15;;;;;;;10.56;100.00;100434.03;5027457;28;20483;-66
2023/12/25 04:33:42;;;;;;;4.40;4.10;;;;;;;10.56;100.00;100431.44;5027679;28;20029;-67
2023/12/25 04:36:08;;;;;;;3.97;3.65;;;;;;;10.56;100.00;100439.22;5027205;28;20028;-66
2023/12/25 04:38:33;;;;;;;3.80;3.45;;;;;;;10.54;100.00;100425.34;5027386;28;20036;-66
2023/12/25 04:40:59;;;;;;;4.32;4.03;;;;;;;10.55;100.00;100427.13;5028329;28;20370;-66
2023/12/25 04:43:25;;;;;;;4.05;3.60;;;;;;;10.54;100.00;100429.69;5026957;28;20478;-66
2023/12/25 04:45:50;;;;;;;3.95;3.53;;;;;;;10.53;100.00;100428.78;5025118;28;20021;-66
2023/12/25 04:48:15;;;;;;;4.03;3.03;;;;;;;10.51;100.00;100430.47;5027402;28;20114;-66
2023/12/25 04:50:41;;;;;;;3.08;2.88;;;;;;;10.53;100.00;100418.44;5025747;28;20379;-66
2023/12/25 04:53:06;;;;;;;3.20;2.85;;;;;;;10.53;100.00;100428.78;5026717;28;20035;-66
2023/12/25 04:55:32;;;;;;;3.60;2.70;;;;;;;10.53;100.00;100415.84;5028481;28;20022;-65
2023/12/25 04:57:58;;;;;;;3.10;2.90;;;;;;;10.52;100.00;100413.22;5026880;28;20376;-66
2023/12/25 05:00:23;;;;;;;3.20;3.00;;;;;;;10.52;100.00;100406.28;5026042;28;20071;-66
2023/12/25 05:02:48;;;;;;;2.97;2.78;;;;;;;10.53;100.00;100405.47;5027557;28;20124;-66
2023/12/25 05:05:15;;;;;;;3.60;3.30;;;;;;;10.56;100.00;100405.53;5026800;28;20449;-66
2023/12/25 05:07:40;;;;;;;3.55;3.25;;;;;;;10.57;100.00;100406.44;5027069;28;20041;-66
2023/12/25 05:10:05;;;;;;;3.45;3.15;;;;;;;10.55;100.00;100395.16;5026693;28;20119;-66
2023/12/25 05:12:31;;;;;;;3.83;3.53;;;;;;;10.56;100.00;100402.94;5027006;28;20033;-66
2023/12/25 05:14:56;;;;;;;3.78;3.47;;;;;;;10.55;100.00;100410.69;5026771;28;20376;-66
2023/12/25 05:17:21;;;;;;;3.58;3.20;;;;;;;10.53;100.00;100408.06;5026557;28;20029;-66
2023/12/25 05:19:47;;;;;;;2.95;2.75;;;;;;;10.54;100.00;100422.75;5026704;28;20044;-66
2023/12/25 05:22:13;;;;;;;3.13;2.92;;;;;;;10.51;100.00;100417.50;5027085;28;20022;-66
2023/12/25 05:24:38;;;;;;;3.00;2.80;;;;;;;10.51;100.00;100417.50;5028054;28;20103;-66
2023/12/25 05:27:03;;;;;;;4.00;2.65;;;;;;;10.50;100.00;100415.78;5026307;28;20065;-66
2023/12/25 05:29:29;;;;;;;3.25;2.38;;;;;;;10.49;100.00;100415.72;5026378;28;20014;-66
2023/12/25 05:31:54;;;;;;;2.75;2.55;;;;;;;10.47;100.00;100407.88;5026812;28;20103;-66
2023/12/25 05:34:19;;;;;;;2.50;2.30;;;;;;;10.49;100.00;100410.56;5026557;28;20374;-66
2023/12/25 05:36:45;;;;;;;2.40;2.20;;;;;;;10.46;100.00;100398.34;5026093;28;20018;-66
2023/12/25 05:39:10;;;;;;;2.38;2.17;;;;;;;10.45;100.00;100401.78;5026444;28;20026;-66
2023/12/25 05:41:36;;;;;;;2.13;1.92;;;;;;;10.44;100.00;100405.19;5025981;28;20025;-66
2023/12/25 05:44:01;;;;;;;2.42;2.22;;;;;;;10.42;100.00;100410.34;5027093;28;20572;-66
2023/12/25 05:46:26;;;;;;;2.53;2.33;;;;;;;10.42;100.00;100415.53;5026540;28;20379;-66
2023/12/25 05:48:52;;;;;;;3.15;2.50;;;;;;;10.42;100.00;100412.06;5025872;28;20053;-66
2023/12/25 05:51:17;;;;;;;1.98;1.85;;;;;;;10.40;100.00;100413.72;5026618;28;20021;-66
2023/12/25 05:53:43;;;;;;;3.20;2.90;;;;;;;10.45;100.00;100404.38;5027991;28;20025;-66
2023/12/25 05:56:08;;;;;;;3.10;2.55;;;;;;;10.43;100.00;100404.31;5027470;28;20021;-66
2023/12/25 05:58:33;;;;;;;3.03;2.75;;;;;;;10.44;100.00;100407.78;5026965;28;20025;-66
2023/12/25 06:00:59;;;;;;;2.40;2.30;;;;;;;10.44;100.00;100407.78;5026414;28;20022;-67
2023/12/25 06:03:24;;;;;;;2.60;2.40;;;;;;;10.43;100.00;100419.00;5028593;28;20075;-65
2023/12/25 06:05:50;;;;;;;3.08;2.85;;;;;;;10.44;100.00;100412.97;5030349;28;20454;-66
2023/12/25 06:08:15;;;;;;;2.70;2.50;;;;;;;10.44;100.00;100419.03;5029270;28;20036;-66
2023/12/25 06:10:41;;;;;;;2.63;2.42;;;;;;;10.45;100.00;100409.56;5030484;28;20363;-66
2023/12/25 06:13:06;;;;;;;2.40;2.20;;;;;;;10.43;100.00;100412.09;5032236;28;20029;-66
2023/12/25 06:15:31;;;;;;;2.40;2.20;;;;;;;10.41;100.00;100415.50;5032217;28;20083;-66
2023/12/25 06:17:58;;;;;;;2.72;2.45;;;;;;;10.40;100.00;100413.72;5029255;28;20288;-66
2023/12/25 06:20:24;;;;;;;3.35;3.05;;;;;;;10.39;100.00;100412.88;5029039;28;20056;-65
2023/12/25 06:22:50;;;;;;;2.70;2.50;;;;;;;10.40;100.00;100416.31;5027862;28;20206;-66
2023/12/25 06:25:15;;;;;;;3.33;3.03;;;;;;;10.40;100.00;100418.91;5029885;28;20018;-66
2023/12/25 06:27:40;;;;;;;3.20;2.90;;;;;;;10.38;100.00;100408.50;5022678;28;20109;-66
2023/12/25 06:30:06;;;;;;;3.33;3.08;;;;;;;10.39;100.00;100404.22;5022056;28;20026;-65
2023/12/25 06:32:31;;;;;;;4.22;3.00;;;;;;;10.37;100.00;100401.59;5023261;28;20067;-66
2023/12/25 06:34:56;;;;;;;3.33;3.03;;;;;;;10.40;100.00;100399.06;5009717;28;20033;-65
2023/12/25 06:37:22;;;;;;;4.22;2.90;;;;;;;10.40;100.00;100401.66;5029835;28;20037;-66
2023/12/25 06:39:47;;;;;;;3.40;3.10;;;;;;;10.40;100.00;100412.00;5029181;28;20071;-66
2023/12/25 06:42:12;;;;;;;3.42;2.75;;;;;;;10.39;100.00;100418.03;5029072;28;20085;-66
2023/12/25 06:44:39;;;;;;;2.95;2.75;;;;;;;10.39;100.00;100407.69;5028415;28;20084;-66
2023/12/25 06:47:05;;;;;;;2.97;2.75;;;;;;;10.39;100.00;100401.63;5028439;28;20452;-66
2023/12/25 06:49:30;;;;;;;2.95;2.75;;;;;;;10.39;100.00;100404.22;5029053;28;20325;-66
2023/12/25 06:51:55;;;;;;;3.05;2.65;;;;;;;10.40;100.00;100409.44;5028198;28;20541;-66
2023/12/25 06:54:20;;;;;;;3.17;2.97;;;;;;;10.40;100.00;100405.94;5027788;28;20080;-66
2023/12/25 06:56:46;;;;;;;3.13;2.92;;;;;;;10.38;100.00;100408.50;5026003;28;20037;-67
2023/12/25 06:59:11;;;;;;;3.40;3.10;;;;;;;10.44;100.00;100423.34;5028372;28;20534;-66
2023/12/25 07:01:36;;;;;;;3.38;3.17;;;;;;;10.41;100.00;100408.59;5028764;28;20048;-66
2023/12/25 07:04:01;;;;;;;3.83;3.53;;;;;;;10.40;100.00;100424.09;5027929;28;20116;-67
2023/12/25 07:06:27;;;;;;;3.92;3.67;;;;;;;10.40;100.00;100413.72;5028519;28;20497;-66
2023/12/25 07:08:52;;;;;;;4.13;3.83;;;;;;;10.41;100.00;100418.09;5025307;28;20042;-66
2023/12/25 07:11:17;;;;;;;4.75;4.25;;;;;;;10.40;100.00;100419.78;5029190;28;20029;-66
2023/12/25 07:13:43;;;;;;;4.78;4.47;;;;;;;10.42;100.00;100423.31;5028171;28;20057;-66
2023/12/25 07:16:08;;;;;;;4.97;4.57;;;;;;;10.42;100.00;100430.19;5027641;28;20082;-66
2023/12/25 07:18:33;;;;;;;5.55;5.15;;;;;;;10.42;100.00;100430.19;5025032;28;20284;-66
2023/12/25 07:20:58;;;;;;;5.32;4.82;;;;;;;10.42;100.00;100437.94;5028280;28;20021;-66
2023/12/25 07:23:24;;;;;;;5.57;5.07;;;;;;;10.41;100.00;100438.81;5028108;28;20509;-66
2023/12/25 07:25:49;;;;;;;5.63;5.13;;;;;;;10.42;100.00;100440.53;5028237;28;20026;-66
2023/12/25 07:28:14;;;;;;;5.55;5.15;;;;;;;10.40;100.00;100452.56;5023424;28;20034;-66
2023/12/25 07:30:39;;;;;;;5.63;5.15;;;;;;;10.43;100.00;100457.84;5026367;28;20116;-67
2023/12/25 07:33:05;;;;;;;5.88;5.43;;;;;;;10.42;100.00;100466.44;5028741;28;20041;-66
2023/12/25 07:35:30;;;;;;;6.93;6.43;;;;;;;10.41;100.00;100454.34;5028291;28;20036;-66
2023/12/25 07:37:55;;;;;;;7.45;6.85;;;;;;;10.40;100.00;100463.81;5028046;28;20021;-66
2023/12/25 07:40:21;;;;;;;7.25;6.72;;;;;;;10.41;100.00;100470.78;5028582;28;20028;-66
2023/12/25 07:42:46;;;;;;;7.05;6.55;;;;;;;10.40;100.00;100469.00;5027781;28;20025;-66
2023/12/25 07:45:12;;;;;;;7.50;6.93;;;;;;;10.39;100.00;100472.44;5023711;28;20132;-66
2023/12/25 07:47:38;;;;;;;7.88;7.28;;;;;;;10.41;100.00;100475.06;5016507;28;20037;-66
2023/12/25 07:50:04;;;;;;;7.80;7.20;;;;;;;10.40;100.00;100463.81;5023468;28;20021;-66
2023/12/25 07:52:30;;;;;;;6.82;6.32;;;;;;;10.40;100.00;100476.78;5026322;28;20029;-67
2023/12/25 07:54:56;;;;;;;6.43;5.93;;;;;;;10.41;100.00;100477.66;5021369;28;20026;-66
2023/12/25 07:57:22;;;;;;;5.78;5.20;;;;;;;10.39;100.00;100477.63;5025223;28;20432;-65
2023/12/25 07:59:48;;;;;;;5.80;5.30;;;;;;;10.41;100.00;100490.59;5023215;28;20033;-66
2023/12/25 08:02:14;;;;;;;5.07;4.68;;;;;;;10.42;100.00;100497.53;5023000;28;20091;-66
2023/12/25 08:04:40;;;;;;;5.15;4.75;;;;;;;10.41;100.00;100495.78;5023451;28;20120;-66
2023/12/25 08:07:05;;;;;;;5.63;5.13;;;;;;;10.42;100.00;100507.91;5023288;28;20021;-66
2023/12/25 08:09:31;;;;;;;4.60;4.20;;;;;;;10.40;100.00;100504.38;5032193;28;20029;-66
2023/12/25 08:11:56;;;;;;;5.05;4.65;;;;;;;10.40;100.00;100504.38;5024950;28;20495;-65
2023/12/25 08:14:21;;;;;;;4.85;4.35;;;;;;;10.38;100.00;100521.63;5023749;28;20059;-66
2023/12/25 08:16:47;;;;;;;2.95;2.75;;;;;;;10.37;100.00;100519.84;5026273;28;20029;-66
2023/12/25 08:19:12;;;;;;;1.85;1.75;;;;;;;10.31;100.00;100531.78;5020128;28;20079;-66
2023/12/25 08:21:39;;;;;;;0.60;0.60;;;;;;;10.21;100.00;100540.13;5029788;28;20027;-67
2023/12/25 08:24:05;;;;;;;0.75;0.30;;;;;;;10.13;100.00;100531.28;5023394;28;20033;-66
2023/12/25 08:26:30;;;;;;;0.50;0.20;;;;;;;10.07;100.00;100537.16;5023070;28;20031;-66
2023/12/25 08:28:55;;;;;;;0.43;0.20;;;;;;;9.99;100.00;100541.22;5025783;28;20367;-66
2023/12/25 08:31:21;;;;;;;0.15;0.10;;;;;;;9.94;100.00;100536.78;5022600;28;20045;-66
2023/12/25 08:33:46;;;;;;;0.10;0.10;;;;;;;9.89;100.00;100532.31;5023353;28;20038;-66
2023/12/25 08:36:12;;;;;;;0.10;0.10;;;;;;;9.83;100.00;100536.47;5022698;28;20021;-67
2023/12/25 08:38:37;;;;;;;0.08;0.08;;;;;;;9.80;100.00;100535.50;5020781;28;20029;-66
2023/12/25 08:41:03;;;;;;;0.10;0.10;;;;;;;9.77;100.00;100541.44;5022051;28;20112;-66
2023/12/25 08:43:28;;;;;;;0.32;0.20;;;;;;;9.73;100.00;100547.38;5022617;28;20053;-66
2023/12/25 08:45:53;;;;;;;0.60;0.10;;;;;;;9.69;100.00;100535.16;5020241;28;20455;-67
2023/12/25 08:48:20;;;;;;;0.55;0.20;;;;;;;9.68;100.00;100546.34;5024968;28;20049;-67
2023/12/25 08:50:45;;;;;;;0.25;0.20;;;;;;;9.67;100.00;100548.06;5030071;28;20033;-66
2023/12/25 08:53:10;;;;;;;0.38;0.20;;;;;;;9.66;100.00;100543.69;5018337;28;20048;-67
2023/12/25 08:55:36;;;;;;;0.55;0.10;;;;;;;9.65;100.00;100569.53;5023175;28;20033;-66
2023/12/25 08:58:03;;;;;;;0.10;0.10;;;;;;;9.64;100.00;100549.66;5023912;28;20490;-66
2023/12/25 09:00:28;;;;;;;0.65;0.20;;;;;;;9.62;100.00;100559.97;5024345;28;20032;-66
2023/12/25 09:02:54;;;;;;;0.22;0.20;;;;;;;9.63;100.00;100548.78;5024020;28;20034;-66
2023/12/25 09:05:19;;;;;;;0.50;0.38;;;;;;;9.61;100.00;100548.75;5026857;28;20017;-66
2023/12/25 09:07:45;;;;;;;1.02;0.30;;;;;;;9.60;100.00;100541.81;5024479;28;20130;-66
2023/12/25 09:10:11;;;;;;;0.65;0.40;;;;;;;9.59;100.00;100528.81;5020385;28;20095;-66
2023/12/25 09:12:36;;;;;;;0.68;0.47;;;;;;;9.58;100.00;100542.59;5032830;28;20037;-67
2023/12/25 09:15:01;;;;;;;0.60;0.30;;;;;;;9.57;100.00;100541.72;5033747;28;20464;-66
2023/12/25 09:17:27;;;;;;;0.50;0.50;;;;;;;9.58;100.00;100545.19;5034874;28;20094;-66
2023/12/25 09:19:52;;;;;;;0.40;0.40;;;;;;;9.58;100.00;100559.00;5020930;28;20601;-66
2023/12/25 09:22:20;;;;;;;2.10;0.47;;;;;;;9.57;100.00;100559.81;5033902;28;20041;-66
2023/12/25 09:24:46;;;;;;;0.40;0.40;;;;;;;9.58;100.00;100573.63;5027021;28;20401;-66
2023/12/25 09:27:11;;;;;;;1.77;0.73;;;;;;;9.57;100.00;100562.41;5036582;28;20036;-66
2023/12/25 09:29:36;;;;;;;1.48;0.73;;;;;;;9.57;100.00;100577.91;5015230;28;20413;-66
2023/12/25 09:32:02;;;;;;;0.70;0.70;;;;;;;9.57;100.00;100585.69;5018244;28;20527;-66
2023/12/25 09:34:27;;;;;;;0.95;0.85;;;;;;;9.58;100.00;100597.81;5023869;28;20068;-67
2023/12/25 09:36:55;;;;;;;1.30;1.20;;;;;;;9.58;100.00;100608.16;5026244;28;20041;-67
2023/12/25 09:39:20;;;;;;;1.42;1.33;;;;;;;9.60;100.00;100614.25;5029503;28;20107;-66
2023/12/25 09:41:46;;;;;;;3.08;2.78;;;;;;;9.61;100.00;100628.94;5037380;28;20447;-66
2023/12/25 09:44:12;;;;;;;3.10;2.90;;;;;;;9.63;100.00;100617.75;5031173;28;20120;-67
2023/12/25 09:46:38;;;;;;;2.08;1.98;;;;;;;9.64;100.00;100622.13;5027744;28;20039;-66
2023/12/25 09:49:05;;;;;;;1.90;1.30;;;;;;;9.62;100.00;100619.47;5034489;28;20101;-66
2023/12/25 09:51:33;;;;;;;1.02;1.02;;;;;;;9.59;100.00;100622.84;5028556;28;20021;-66
2023/12/25 09:53:58;;;;;;;0.70;0.70;;;;;;;9.58;100.00;100610.75;5022211;28;20291;-66
2023/12/25 09:56:26;;;;;;;0.60;0.57;;;;;;;9.56;100.00;100596.88;5027598;28;20584;-66
2023/12/25 09:58:53;;;;;;;1.02;0.50;;;;;;;9.55;100.00;100597.69;5022521;28;20437;-66
2023/12/25 10:01:20;;;;;;;0.50;0.50;;;;;;;9.54;100.00;100600.22;5027819;28;20029;-66
2023/12/25 10:03:46;;;;;;;0.40;0.40;;;;;;;9.53;100.00;100599.38;5026750;28;20109;-67
2023/12/25 10:06:12;;;;;;;0.30;0.30;;;;;;;9.51;100.00;100603.59;5027084;28;20048;-66
2023/12/25 10:08:38;;;;;;;0.30;0.30;;;;;;;9.50;100.00;100599.25;5028281;28;20389;-66
2023/12/25 10:11:04;;;;;;;0.73;0.25;;;;;;;9.49;100.00;100610.44;5027208;28;20025;-66
2023/12/25 10:13:30;;;;;;;0.20;0.20;;;;;;;9.49;100.00;100600.09;5027263;28;20027;-66
2023/12/25 10:15:55;;;;;;;0.40;0.20;;;;;;;9.47;100.00;100605.22;5026980;28;20084;-66
2023/12/25 10:18:21;;;;;;;0.22;0.17;;;;;;;9.45;100.00;100606.88;5026890;28;20075;-66
2023/12/25 10:20:57;;;;;;;0.40;0.20;;;;;;;9.45;100.00;100605.97;5027170;28;20033;-66
2023/12/25 10:23:31;;;;;;;0.28;0.20;;;;;;;9.44;100.00;100601.66;5027675;28;20064;-66
2023/12/25 10:26:00;;;;;;;1.05;0.10;;;;;;;9.42;100.00;100611.06;5032784;28;20104;-66
2023/12/25 10:28:26;;;;;;;0.32;0.22;;;;;;;9.42;100.00;100624.00;5032117;28;20412;-66
2023/12/25 10:31:00;;;;;;;1.42;0.20;;;;;;;9.40;100.00;100610.13;5038331;28;20029;-66
2023/12/25 10:33:26;;;;;;;0.13;0.10;;;;;;;9.40;100.00;100611.00;5027588;28;20063;-66
2023/12/25 10:36:03;;;;;;;2.10;0.32;;;;;;;9.41;100.00;100614.50;5036798;28;20339;-66
2023/12/25 10:38:31;;;;;;;0.50;0.40;;;;;;;9.40;100.00;100610.13;5025694;28;20017;-66
2023/12/25 10:40:56;;;;;;;1.42;0.50;;;;;;;9.40;100.00;100612.72;5028101;28;20476;-66
2023/12/25 10:43:24;;;;;;;0.65;0.50;;;;;;;9.39;100.00;100608.38;5026616;28;20025;-66
2023/12/25 10:45:52;;;;;;;1.45;1.35;;;;;;;9.39;100.00;100603.22;5028549;28;20040;-66
2023/12/25 10:48:19;;;;;;;0.70;0.50;;;;;;;9.39;100.00;100598.03;5026891;28;20439;-66
2023/12/25 10:50:46;;;;;;;0.90;0.40;;;;;;;9.37;100.00;100611.78;5024808;28;20039;-66
2023/12/25 10:53:16;;;;;;;0.90;0.35;;;;;;;9.36;100.00;100617.78;5027276;28;20481;-66
2023/12/25 10:55:43;;;;;;;0.35;0.30;;;;;;;9.35;100.00;100612.56;5026630;28;20027;-66
2023/12/25 10:58:12;;;;;;;2.38;0.60;;;;;;;9.30;100.00;100622.75;5027015;28;20029;-67
2023/12/25 11:00:41;;;;;;;0.68;0.50;;;;;;;9.27;100.00;100609.72;5022357;28;20077;-67
2023/12/25 11:03:06;;;;;;;1.60;0.60;;;;;;;9.27;100.00;100608.81;5025247;28;20323;-66
2023/12/25 11:05:32;;;;;;;3.40;0.57;;;;;;;9.25;100.00;100616.53;5026056;28;20021;-66
2023/12/25 11:07:58;;;;;;;1.77;0.80;;;;;;;9.25;100.00;100616.53;5025076;28;20378;-66
2023/12/25 11:10:25;;;;;;;1.38;0.70;;;;;;;9.24;100.00;100609.63;5025347;28;20033;-66
2023/12/25 11:12:51;;;;;;;1.42;0.80;;;;;;;9.23;100.00;100618.19;5025551;28;20040;-66